Airfield :
LOGIN :

Register | Disclaimer

   EN    FR    IT 

 










Legend :    VFR   Marginal VFR   IFR   Intensive IFR   Very Intensive IFR
Visi :
Ceiling :
>= 8 km
>= 3000ft
5 to 8 km
1000 to 3000 ft
1500m to 5 km
500 to 1000 ft
800 to 1500m
200 to 500 ft
< 800m
< 200 ft
Symbols :   Thunderstorms  Fog  Heavy snow  Heavy precipitations  Wind > 20 kt
SIGMETs :     Misc.  Thunderstorms  Icing  Turbulence  Mountain Waves  Volcanic Ashes







- Airport Elevation : 183 ft
- IATA code : HAJ


EDDV - Hanover/Langenhagen Int.

CURRENT METAR :
  • 172020Z 27014KT 9999 -SHSNRA FEW006CB BKN012 01/M00 Q1004 NOSIG

EXPIRED METARs :
  • 171950Z 27015KT 9999 BKN014 02/M00 Q1003 TEMPO 30015G25KT 1200 SHSN BKN008CB
  • 171920Z 26015KT 9999 BKN013 02/00 Q1003 TEMPO 25015G25KT BKN008
  • 171850Z 27013KT 9999 BKN013 SCT023 02/M00 Q1002 TEMPO 25015G25KT BKN008
  • 171820Z 26012KT 9999 SCT013 02/M00 Q1002 TEMPO 25015G25KT BKN008
  • 171750Z 27014KT 9999 BKN011 02/01 Q1001 TEMPO 25015G25KT BKN008

TAF AMD TAF EDDV
Valid from the 17 at 18:00 until the 18 at 18:00 UTC


171838Z 1718/1818 28012KT 9999 BKN015
PROB40
TEMPO 1718/1724 29015G25KT 1200 SHSN BKN004CB
BECMG 1805/1808 25006KT
No reported NOTAMs for that airfield.



MET'MAP, your aeronautical weather chart ! - Copyright ORBIFLY December 2007 - Disclaimer

ORBIFLY MET'MAP TEAM :

Programming & Development : Alexandra Zaïnal
Concept & Development : Baudouin d'Aumeries
Co-Development & Prog : Marc-Olivier Méhu
Technical & hardware support : Manuel Goepfert

Contact : metmap@orbifly.com




SOURCES & CREDITS :

   NOAA